sensor_id;sensor_type;location;lat;lon;timestamp;P1;durP1;ratioP1;P2;durP2;ratioP2
33150;SDS011;19508;42.578;23.416;2023-09-07T00:00:47;21.90;;;11.27;;
33150;SDS011;19508;42.578;23.416;2023-09-07T00:03:15;19.98;;;11.05;;
33150;SDS011;19508;42.578;23.416;2023-09-07T00:05:41;20.63;;;10.65;;
33150;SDS011;19508;42.578;23.416;2023-09-07T00:08:06;16.10;;;10.98;;
33150;SDS011;19508;42.578;23.416;2023-09-07T00:10:32;17.08;;;10.80;;
33150;SDS011;19508;42.578;23.416;2023-09-07T00:13:00;22.83;;;10.88;;
33150;SDS011;19508;42.578;23.416;2023-09-07T00:15:27;16.92;;;10.77;;
33150;SDS011;19508;42.578;23.416;2023-09-07T00:17:53;17.27;;;10.48;;
33150;SDS011;19508;42.578;23.416;2023-09-07T00:20:18;17.83;;;10.60;;
33150;SDS011;19508;42.578;23.416;2023-09-07T00:22:46;19.70;;;10.93;;
33150;SDS011;19508;42.578;23.416;2023-09-07T00:25:12;19.30;;;10.23;;
33150;SDS011;19508;42.578;23.416;2023-09-07T00:27:39;19.02;;;11.50;;
33150;SDS011;19508;42.578;23.416;2023-09-07T00:30:04;19.17;;;11.13;;
33150;SDS011;19508;42.578;23.416;2023-09-07T00:32:32;23.23;;;11.00;;
33150;SDS011;19508;42.578;23.416;2023-09-07T00:34:57;21.73;;;11.43;;
33150;SDS011;19508;42.578;23.416;2023-09-07T00:37:23;18.17;;;11.23;;
33150;SDS011;19508;42.578;23.416;2023-09-07T00:39:48;26.75;;;11.95;;
33150;SDS011;19508;42.578;23.416;2023-09-07T00:42:13;34.03;;;11.73;;
33150;SDS011;19508;42.578;23.416;2023-09-07T00:44:39;26.42;;;11.40;;
33150;SDS011;19508;42.578;23.416;2023-09-07T00:47:04;17.17;;;11.73;;
33150;SDS011;19508;42.578;23.416;2023-09-07T00:49:30;21.55;;;11.95;;
33150;SDS011;19508;42.578;23.416;2023-09-07T00:51:56;20.67;;;11.90;;
33150;SDS011;19508;42.578;23.416;2023-09-07T00:54:22;20.02;;;12.60;;
33150;SDS011;19508;42.578;23.416;2023-09-07T00:56:48;25.52;;;13.43;;
33150;SDS011;19508;42.578;23.416;2023-09-07T00:59:13;18.05;;;12.80;;
33150;SDS011;19508;42.578;23.416;2023-09-07T01:01:39;32.15;;;13.27;;
33150;SDS011;19508;42.578;23.416;2023-09-07T01:04:04;18.88;;;13.10;;
33150;SDS011;19508;42.578;23.416;2023-09-07T01:06:39;22.33;;;14.57;;
33150;SDS011;19508;42.578;23.416;2023-09-07T01:09:10;21.10;;;12.70;;
33150;SDS011;19508;42.578;23.416;2023-09-07T01:11:39;20.25;;;13.48;;
33150;SDS011;19508;42.578;23.416;2023-09-07T01:14:04;21.23;;;12.73;;
33150;SDS011;19508;42.578;23.416;2023-09-07T01:16:30;17.80;;;13.00;;
33150;SDS011;19508;42.578;23.416;2023-09-07T01:19:00;22.55;;;12.63;;
33150;SDS011;19508;42.578;23.416;2023-09-07T01:21:27;19.58;;;13.85;;
33150;SDS011;19508;42.578;23.416;2023-09-07T01:23:59;21.15;;;13.85;;
33150;SDS011;19508;42.578;23.416;2023-09-07T01:26:25;19.80;;;13.88;;
33150;SDS011;19508;42.578;23.416;2023-09-07T01:28:51;20.00;;;13.98;;
33150;SDS011;19508;42.578;23.416;2023-09-07T01:31:16;23.70;;;15.32;;
33150;SDS011;19508;42.578;23.416;2023-09-07T01:33:42;30.10;;;14.25;;
33150;SDS011;19508;42.578;23.416;2023-09-07T01:36:07;25.63;;;14.57;;
33150;SDS011;19508;42.578;23.416;2023-09-07T01:38:33;27.40;;;15.10;;
33150;SDS011;19508;42.578;23.416;2023-09-07T01:40:58;27.83;;;14.27;;
33150;SDS011;19508;42.578;23.416;2023-09-07T01:43:23;24.75;;;14.25;;
33150;SDS011;19508;42.578;23.416;2023-09-07T01:45:49;21.92;;;14.50;;
33150;SDS011;19508;42.578;23.416;2023-09-07T01:48:14;19.77;;;14.23;;
33150;SDS011;19508;42.578;23.416;2023-09-07T01:50:40;21.05;;;14.35;;
33150;SDS011;19508;42.578;23.416;2023-09-07T01:53:05;22.77;;;14.30;;
33150;SDS011;19508;42.578;23.416;2023-09-07T01:55:31;21.63;;;13.45;;
33150;SDS011;19508;42.578;23.416;2023-09-07T01:57:57;25.52;;;14.60;;
33150;SDS011;19508;42.578;23.416;2023-09-07T02:00:22;21.25;;;13.32;;
33150;SDS011;19508;42.578;23.416;2023-09-07T02:02:48;21.27;;;14.55;;
33150;SDS011;19508;42.578;23.416;2023-09-07T02:05:13;31.40;;;15.10;;
33150;SDS011;19508;42.578;23.416;2023-09-07T02:07:38;24.73;;;14.60;;
33150;SDS011;19508;42.578;23.416;2023-09-07T02:10:04;26.40;;;14.90;;
33150;SDS011;19508;42.578;23.416;2023-09-07T02:12:31;26.40;;;14.82;;
33150;SDS011;19508;42.578;23.416;2023-09-07T02:14:56;29.65;;;15.30;;
33150;SDS011;19508;42.578;23.416;2023-09-07T02:17:22;18.23;;;14.20;;
33150;SDS011;19508;42.578;23.416;2023-09-07T02:19:48;23.95;;;14.30;;
33150;SDS011;19508;42.578;23.416;2023-09-07T02:22:13;21.48;;;13.82;;
33150;SDS011;19508;42.578;23.416;2023-09-07T02:24:39;25.05;;;14.77;;
33150;SDS011;19508;42.578;23.416;2023-09-07T02:27:04;20.38;;;13.57;;
33150;SDS011;19508;42.578;23.416;2023-09-07T02:29:29;23.08;;;15.60;;
33150;SDS011;19508;42.578;23.416;2023-09-07T02:31:55;31.75;;;15.30;;
33150;SDS011;19508;42.578;23.416;2023-09-07T02:34:21;21.85;;;15.75;;
33150;SDS011;19508;42.578;23.416;2023-09-07T02:36:47;27.27;;;15.95;;
33150;SDS011;19508;42.578;23.416;2023-09-07T02:39:12;26.95;;;17.02;;
33150;SDS011;19508;42.578;23.416;2023-09-07T02:41:37;22.50;;;16.15;;
33150;SDS011;19508;42.578;23.416;2023-09-07T02:44:06;23.00;;;16.20;;
33150;SDS011;19508;42.578;23.416;2023-09-07T02:46:31;28.30;;;16.42;;
33150;SDS011;19508;42.578;23.416;2023-09-07T02:48:57;26.27;;;16.08;;
33150;SDS011;19508;42.578;23.416;2023-09-07T02:51:25;30.50;;;16.60;;
33150;SDS011;19508;42.578;23.416;2023-09-07T02:53:51;26.83;;;16.42;;
33150;SDS011;19508;42.578;23.416;2023-09-07T02:56:17;27.45;;;15.70;;
33150;SDS011;19508;42.578;23.416;2023-09-07T02:58:42;25.35;;;15.77;;
33150;SDS011;19508;42.578;23.416;2023-09-07T03:01:08;27.50;;;17.10;;
33150;SDS011;19508;42.578;23.416;2023-09-07T03:03:34;23.27;;;16.88;;
33150;SDS011;19508;42.578;23.416;2023-09-07T03:06:07;29.73;;;17.88;;
33150;SDS011;19508;42.578;23.416;2023-09-07T03:08:33;29.85;;;18.02;;
33150;SDS011;19508;42.578;23.416;2023-09-07T03:11:02;32.10;;;18.65;;
33150;SDS011;19508;42.578;23.416;2023-09-07T03:13:31;31.40;;;17.85;;
33150;SDS011;19508;42.578;23.416;2023-09-07T03:15:57;28.17;;;18.00;;
33150;SDS011;19508;42.578;23.416;2023-09-07T03:18:22;28.58;;;18.10;;
33150;SDS011;19508;42.578;23.416;2023-09-07T03:20:49;44.58;;;20.02;;
33150;SDS011;19508;42.578;23.416;2023-09-07T03:23:15;38.05;;;18.70;;
33150;SDS011;19508;42.578;23.416;2023-09-07T03:25:41;37.25;;;20.67;;
33150;SDS011;19508;42.578;23.416;2023-09-07T03:28:06;56.47;;;21.23;;
33150;SDS011;19508;42.578;23.416;2023-09-07T03:30:32;57.90;;;23.17;;
33150;SDS011;19508;42.578;23.416;2023-09-07T03:32:58;64.22;;;24.13;;
33150;SDS011;19508;42.578;23.416;2023-09-07T03:35:23;58.90;;;24.55;;
33150;SDS011;19508;42.578;23.416;2023-09-07T03:37:49;66.40;;;25.02;;
33150;SDS011;19508;42.578;23.416;2023-09-07T03:40:14;70.95;;;25.77;;
33150;SDS011;19508;42.578;23.416;2023-09-07T03:42:40;39.40;;;22.58;;
33150;SDS011;19508;42.578;23.416;2023-09-07T03:45:05;37.85;;;22.98;;
33150;SDS011;19508;42.578;23.416;2023-09-07T03:47:31;34.95;;;21.50;;
33150;SDS011;19508;42.578;23.416;2023-09-07T03:49:57;37.15;;;22.60;;
33150;SDS011;19508;42.578;23.416;2023-09-07T03:52:22;29.85;;;21.67;;
33150;SDS011;19508;42.578;23.416;2023-09-07T03:54:50;36.78;;;21.67;;
33150;SDS011;19508;42.578;23.416;2023-09-07T03:57:17;31.35;;;21.88;;
33150;SDS011;19508;42.578;23.416;2023-09-07T03:59:43;48.40;;;22.58;;
33150;SDS011;19508;42.578;23.416;2023-09-07T04:02:09;31.83;;;23.13;;
33150;SDS011;19508;42.578;23.416;2023-09-07T04:04:34;33.50;;;22.60;;
33150;SDS011;19508;42.578;23.416;2023-09-07T04:06:59;37.10;;;22.38;;
33150;SDS011;19508;42.578;23.416;2023-09-07T04:09:25;37.60;;;23.58;;
33150;SDS011;19508;42.578;23.416;2023-09-07T04:11:50;33.80;;;22.30;;
33150;SDS011;19508;42.578;23.416;2023-09-07T04:14:15;35.50;;;23.55;;
33150;SDS011;19508;42.578;23.416;2023-09-07T04:16:41;39.35;;;25.38;;
33150;SDS011;19508;42.578;23.416;2023-09-07T04:19:07;41.28;;;25.50;;
33150;SDS011;19508;42.578;23.416;2023-09-07T04:21:32;38.33;;;25.38;;
33150;SDS011;19508;42.578;23.416;2023-09-07T04:23:58;42.20;;;24.65;;
33150;SDS011;19508;42.578;23.416;2023-09-07T04:26:23;42.95;;;27.00;;
33150;SDS011;19508;42.578;23.416;2023-09-07T04:28:48;39.38;;;26.63;;
33150;SDS011;19508;42.578;23.416;2023-09-07T04:31:14;40.83;;;26.35;;
33150;SDS011;19508;42.578;23.416;2023-09-07T04:33:39;33.83;;;23.77;;
33150;SDS011;19508;42.578;23.416;2023-09-07T04:36:11;34.72;;;24.77;;
33150;SDS011;19508;42.578;23.416;2023-09-07T04:38:38;35.97;;;23.83;;
33150;SDS011;19508;42.578;23.416;2023-09-07T04:43:37;38.60;;;25.40;;
33150;SDS011;19508;42.578;23.416;2023-09-07T04:46:05;38.50;;;23.23;;
33150;SDS011;19508;42.578;23.416;2023-09-07T04:48:31;38.13;;;22.70;;
33150;SDS011;19508;42.578;23.416;2023-09-07T04:51:00;38.83;;;22.63;;
33150;SDS011;19508;42.578;23.416;2023-09-07T04:53:28;37.20;;;22.70;;
33150;SDS011;19508;42.578;23.416;2023-09-07T04:55:54;36.53;;;23.15;;
33150;SDS011;19508;42.578;23.416;2023-09-07T04:58:19;33.17;;;22.70;;
33150;SDS011;19508;42.578;23.416;2023-09-07T05:00:44;33.08;;;23.50;;
33150;SDS011;19508;42.578;23.416;2023-09-07T05:03:10;39.83;;;22.38;;
33150;SDS011;19508;42.578;23.416;2023-09-07T05:05:35;32.55;;;21.40;;
33150;SDS011;19508;42.578;23.416;2023-09-07T05:08:00;31.45;;;21.92;;
33150;SDS011;19508;42.578;23.416;2023-09-07T05:10:26;28.77;;;20.83;;
33150;SDS011;19508;42.578;23.416;2023-09-07T05:12:52;31.35;;;20.23;;
33150;SDS011;19508;42.578;23.416;2023-09-07T05:15:17;27.77;;;19.63;;
33150;SDS011;19508;42.578;23.416;2023-09-07T05:17:42;27.48;;;20.42;;
33150;SDS011;19508;42.578;23.416;2023-09-07T05:20:08;32.08;;;21.67;;
33150;SDS011;19508;42.578;23.416;2023-09-07T05:22:34;32.80;;;22.38;;
33150;SDS011;19508;42.578;23.416;2023-09-07T05:25:02;33.58;;;21.63;;
33150;SDS011;19508;42.578;23.416;2023-09-07T05:27:28;31.35;;;20.10;;
33150;SDS011;19508;42.578;23.416;2023-09-07T05:29:53;32.63;;;21.13;;
33150;SDS011;19508;42.578;23.416;2023-09-07T05:32:19;26.15;;;19.58;;
33150;SDS011;19508;42.578;23.416;2023-09-07T05:34:44;36.45;;;22.63;;
33150;SDS011;19508;42.578;23.416;2023-09-07T05:37:09;37.95;;;21.92;;
33150;SDS011;19508;42.578;23.416;2023-09-07T05:39:35;31.13;;;20.45;;
33150;SDS011;19508;42.578;23.416;2023-09-07T05:42:00;29.80;;;18.58;;
33150;SDS011;19508;42.578;23.416;2023-09-07T05:44:25;27.55;;;17.60;;
33150;SDS011;19508;42.578;23.416;2023-09-07T05:46:51;30.75;;;17.70;;
33150;SDS011;19508;42.578;23.416;2023-09-07T05:49:16;27.40;;;16.55;;
33150;SDS011;19508;42.578;23.416;2023-09-07T05:51:42;24.00;;;15.00;;
33150;SDS011;19508;42.578;23.416;2023-09-07T05:54:07;23.38;;;13.75;;
33150;SDS011;19508;42.578;23.416;2023-09-07T05:56:32;15.75;;;12.05;;
33150;SDS011;19508;42.578;23.416;2023-09-07T05:58:58;19.30;;;11.43;;
33150;SDS011;19508;42.578;23.416;2023-09-07T06:01:24;16.75;;;11.40;;
33150;SDS011;19508;42.578;23.416;2023-09-07T06:03:49;22.25;;;9.93;;
33150;SDS011;19508;42.578;23.416;2023-09-07T06:06:15;21.27;;;9.98;;
33150;SDS011;19508;42.578;23.416;2023-09-07T06:08:40;13.77;;;8.30;;
33150;SDS011;19508;42.578;23.416;2023-09-07T06:11:06;11.77;;;7.45;;
33150;SDS011;19508;42.578;23.416;2023-09-07T06:13:31;12.93;;;8.27;;
33150;SDS011;19508;42.578;23.416;2023-09-07T06:15:56;14.90;;;8.82;;
33150;SDS011;19508;42.578;23.416;2023-09-07T06:18:22;18.35;;;9.00;;
33150;SDS011;19508;42.578;23.416;2023-09-07T06:20:47;13.65;;;8.23;;
33150;SDS011;19508;42.578;23.416;2023-09-07T06:23:13;16.58;;;8.57;;
33150;SDS011;19508;42.578;23.416;2023-09-07T06:25:38;15.75;;;9.07;;
33150;SDS011;19508;42.578;23.416;2023-09-07T06:28:04;14.50;;;8.93;;
33150;SDS011;19508;42.578;23.416;2023-09-07T06:30:29;18.38;;;8.00;;
33150;SDS011;19508;42.578;23.416;2023-09-07T06:32:55;15.50;;;8.20;;
33150;SDS011;19508;42.578;23.416;2023-09-07T06:35:21;15.57;;;8.07;;
33150;SDS011;19508;42.578;23.416;2023-09-07T06:37:47;14.93;;;7.70;;
33150;SDS011;19508;42.578;23.416;2023-09-07T06:40:12;13.70;;;7.80;;
33150;SDS011;19508;42.578;23.416;2023-09-07T06:42:38;14.68;;;7.78;;
33150;SDS011;19508;42.578;23.416;2023-09-07T06:45:04;17.05;;;7.03;;
33150;SDS011;19508;42.578;23.416;2023-09-07T06:47:30;15.73;;;7.35;;
33150;SDS011;19508;42.578;23.416;2023-09-07T06:49:56;14.85;;;7.53;;
33150;SDS011;19508;42.578;23.416;2023-09-07T06:52:22;13.30;;;6.55;;
33150;SDS011;19508;42.578;23.416;2023-09-07T06:54:50;13.25;;;6.30;;
33150;SDS011;19508;42.578;23.416;2023-09-07T06:57:18;10.93;;;6.50;;
33150;SDS011;19508;42.578;23.416;2023-09-07T06:59:44;9.93;;;6.20;;
33150;SDS011;19508;42.578;23.416;2023-09-07T07:02:09;9.52;;;6.13;;
33150;SDS011;19508;42.578;23.416;2023-09-07T07:04:34;11.65;;;6.32;;
33150;SDS011;19508;42.578;23.416;2023-09-07T07:07:00;10.27;;;6.20;;
33150;SDS011;19508;42.578;23.416;2023-09-07T07:09:29;8.82;;;5.72;;
33150;SDS011;19508;42.578;23.416;2023-09-07T07:11:55;11.35;;;6.82;;
33150;SDS011;19508;42.578;23.416;2023-09-07T07:14:21;10.23;;;6.20;;
33150;SDS011;19508;42.578;23.416;2023-09-07T07:16:46;9.70;;;6.38;;
33150;SDS011;19508;42.578;23.416;2023-09-07T07:19:11;17.80;;;6.18;;
33150;SDS011;19508;42.578;23.416;2023-09-07T07:21:37;10.57;;;6.45;;
33150;SDS011;19508;42.578;23.416;2023-09-07T07:24:02;18.60;;;6.50;;
33150;SDS011;19508;42.578;23.416;2023-09-07T07:26:31;8.82;;;6.82;;
33150;SDS011;19508;42.578;23.416;2023-09-07T07:28:56;17.15;;;7.13;;
33150;SDS011;19508;42.578;23.416;2023-09-07T07:31:21;14.80;;;6.85;;
33150;SDS011;19508;42.578;23.416;2023-09-07T07:33:47;12.88;;;6.10;;
33150;SDS011;19508;42.578;23.416;2023-09-07T07:36:15;12.85;;;7.03;;
33150;SDS011;19508;42.578;23.416;2023-09-07T07:38:41;16.00;;;6.95;;
33150;SDS011;19508;42.578;23.416;2023-09-07T07:41:06;10.73;;;6.75;;
33150;SDS011;19508;42.578;23.416;2023-09-07T07:43:32;15.10;;;7.30;;
33150;SDS011;19508;42.578;23.416;2023-09-07T07:45:58;10.50;;;6.25;;
33150;SDS011;19508;42.578;23.416;2023-09-07T07:48:24;12.63;;;6.40;;
33150;SDS011;19508;42.578;23.416;2023-09-07T07:50:50;11.50;;;5.90;;
33150;SDS011;19508;42.578;23.416;2023-09-07T07:53:15;17.27;;;5.75;;
33150;SDS011;19508;42.578;23.416;2023-09-07T07:55:41;13.02;;;6.13;;
33150;SDS011;19508;42.578;23.416;2023-09-07T07:58:07;9.70;;;5.35;;
33150;SDS011;19508;42.578;23.416;2023-09-07T08:00:34;17.90;;;6.35;;
33150;SDS011;19508;42.578;23.416;2023-09-07T08:03:00;9.23;;;5.60;;
33150;SDS011;19508;42.578;23.416;2023-09-07T08:05:28;10.55;;;4.55;;
33150;SDS011;19508;42.578;23.416;2023-09-07T08:07:53;9.43;;;4.88;;
33150;SDS011;19508;42.578;23.416;2023-09-07T08:10:19;10.52;;;4.78;;
33150;SDS011;19508;42.578;23.416;2023-09-07T08:12:44;9.63;;;4.95;;
33150;SDS011;19508;42.578;23.416;2023-09-07T08:15:10;9.68;;;4.80;;
33150;SDS011;19508;42.578;23.416;2023-09-07T08:17:35;7.13;;;4.80;;
33150;SDS011;19508;42.578;23.416;2023-09-07T08:20:01;21.42;;;6.43;;
33150;SDS011;19508;42.578;23.416;2023-09-07T08:22:28;10.95;;;4.25;;
33150;SDS011;19508;42.578;23.416;2023-09-07T08:24:53;13.10;;;3.60;;
33150;SDS011;19508;42.578;23.416;2023-09-07T08:27:20;8.10;;;3.70;;
33150;SDS011;19508;42.578;23.416;2023-09-07T08:29:46;8.82;;;4.20;;
33150;SDS011;19508;42.578;23.416;2023-09-07T08:32:13;12.15;;;4.07;;
33150;SDS011;19508;42.578;23.416;2023-09-07T08:34:39;9.95;;;3.70;;
33150;SDS011;19508;42.578;23.416;2023-09-07T08:37:06;5.63;;;3.75;;
33150;SDS011;19508;42.578;23.416;2023-09-07T08:39:34;11.23;;;3.88;;
33150;SDS011;19508;42.578;23.416;2023-09-07T08:41:59;9.95;;;4.28;;
33150;SDS011;19508;42.578;23.416;2023-09-07T08:44:26;13.27;;;4.05;;
33150;SDS011;19508;42.578;23.416;2023-09-07T08:46:52;15.05;;;3.97;;
33150;SDS011;19508;42.578;23.416;2023-09-07T08:49:17;7.55;;;4.05;;
33150;SDS011;19508;42.578;23.416;2023-09-07T08:51:44;6.03;;;3.47;;
33150;SDS011;19508;42.578;23.416;2023-09-07T08:54:10;8.07;;;3.95;;
33150;SDS011;19508;42.578;23.416;2023-09-07T08:56:37;10.07;;;4.25;;
33150;SDS011;19508;42.578;23.416;2023-09-07T08:59:02;13.50;;;4.05;;
33150;SDS011;19508;42.578;23.416;2023-09-07T09:01:29;9.77;;;3.80;;
33150;SDS011;19508;42.578;23.416;2023-09-07T09:03:56;7.15;;;3.88;;
33150;SDS011;19508;42.578;23.416;2023-09-07T09:06:22;7.05;;;3.70;;
33150;SDS011;19508;42.578;23.416;2023-09-07T09:08:48;8.23;;;3.47;;
33150;SDS011;19508;42.578;23.416;2023-09-07T09:11:16;8.75;;;3.47;;
33150;SDS011;19508;42.578;23.416;2023-09-07T09:13:42;8.32;;;3.70;;
33150;SDS011;19508;42.578;23.416;2023-09-07T09:16:08;7.60;;;3.55;;
33150;SDS011;19508;42.578;23.416;2023-09-07T09:18:34;7.13;;;3.70;;
33150;SDS011;19508;42.578;23.416;2023-09-07T09:21:00;10.60;;;3.70;;
33150;SDS011;19508;42.578;23.416;2023-09-07T09:23:36;6.28;;;3.03;;
33150;SDS011;19508;42.578;23.416;2023-09-07T09:26:03;14.27;;;4.38;;
33150;SDS011;19508;42.578;23.416;2023-09-07T09:28:33;13.70;;;3.70;;
33150;SDS011;19508;42.578;23.416;2023-09-07T09:31:02;5.05;;;3.15;;
33150;SDS011;19508;42.578;23.416;2023-09-07T09:33:32;12.43;;;3.55;;
33150;SDS011;19508;42.578;23.416;2023-09-07T09:35:58;13.90;;;3.90;;
33150;SDS011;19508;42.578;23.416;2023-09-07T09:38:24;14.70;;;4.00;;
33150;SDS011;19508;42.578;23.416;2023-09-07T09:40:50;11.68;;;3.58;;
33150;SDS011;19508;42.578;23.416;2023-09-07T09:43:16;11.07;;;3.83;;
33150;SDS011;19508;42.578;23.416;2023-09-07T09:45:45;7.47;;;3.35;;
33150;SDS011;19508;42.578;23.416;2023-09-07T09:48:11;11.25;;;3.70;;
33150;SDS011;19508;42.578;23.416;2023-09-07T09:50:38;15.05;;;3.60;;
33150;SDS011;19508;42.578;23.416;2023-09-07T09:53:05;8.73;;;3.97;;
33150;SDS011;19508;42.578;23.416;2023-09-07T09:55:34;11.18;;;4.13;;
33150;SDS011;19508;42.578;23.416;2023-09-07T09:58:00;9.27;;;3.55;;
33150;SDS011;19508;42.578;23.416;2023-09-07T10:00:26;10.73;;;3.65;;
33150;SDS011;19508;42.578;23.416;2023-09-07T10:06:07;6.05;;;3.75;;
33150;SDS011;19508;42.578;23.416;2023-09-07T10:08:36;8.50;;;3.70;;
33150;SDS011;19508;42.578;23.416;2023-09-07T10:11:07;15.35;;;4.32;;
33150;SDS011;19508;42.578;23.416;2023-09-07T10:13:34;12.13;;;3.67;;
33150;SDS011;19508;42.578;23.416;2023-09-07T10:16:00;19.17;;;3.90;;
33150;SDS011;19508;42.578;23.416;2023-09-07T10:18:36;5.90;;;3.95;;
33150;SDS011;19508;42.578;23.416;2023-09-07T10:21:03;6.55;;;3.38;;
33150;SDS011;19508;42.578;23.416;2023-09-07T10:23:36;12.88;;;3.88;;
33150;SDS011;19508;42.578;23.416;2023-09-07T10:26:02;4.07;;;3.10;;
33150;SDS011;19508;42.578;23.416;2023-09-07T10:28:31;13.00;;;3.70;;
33150;SDS011;19508;42.578;23.416;2023-09-07T10:31:04;7.18;;;3.33;;
33150;SDS011;19508;42.578;23.416;2023-09-07T10:33:34;11.00;;;3.63;;
33150;SDS011;19508;42.578;23.416;2023-09-07T10:36:00;7.68;;;3.47;;
33150;SDS011;19508;42.578;23.416;2023-09-07T10:38:28;5.32;;;3.33;;
33150;SDS011;19508;42.578;23.416;2023-09-07T10:40:55;10.45;;;3.92;;
33150;SDS011;19508;42.578;23.416;2023-09-07T10:43:33;7.85;;;3.67;;
33150;SDS011;19508;42.578;23.416;2023-09-07T10:45:59;13.30;;;3.60;;
33150;SDS011;19508;42.578;23.416;2023-09-07T10:48:26;15.77;;;4.18;;
33150;SDS011;19508;42.578;23.416;2023-09-07T10:50:53;5.78;;;3.45;;
33150;SDS011;19508;42.578;23.416;2023-09-07T10:53:29;10.40;;;3.50;;
33150;SDS011;19508;42.578;23.416;2023-09-07T10:55:57;13.55;;;4.75;;
33150;SDS011;19508;42.578;23.416;2023-09-07T10:58:27;12.93;;;5.15;;
33150;SDS011;19508;42.578;23.416;2023-09-07T11:00:54;9.45;;;4.25;;
33150;SDS011;19508;42.578;23.416;2023-09-07T11:03:20;24.48;;;4.63;;
33150;SDS011;19508;42.578;23.416;2023-09-07T11:05:46;10.70;;;4.80;;
33150;SDS011;19508;42.578;23.416;2023-09-07T11:08:12;6.65;;;4.63;;
33150;SDS011;19508;42.578;23.416;2023-09-07T11:10:37;14.38;;;5.15;;
33150;SDS011;19508;42.578;23.416;2023-09-07T11:13:03;10.27;;;5.30;;
33150;SDS011;19508;42.578;23.416;2023-09-07T11:15:30;8.18;;;4.28;;
33150;SDS011;19508;42.578;23.416;2023-09-07T11:17:57;7.18;;;3.95;;
33150;SDS011;19508;42.578;23.416;2023-09-07T11:20:23;10.98;;;4.47;;
33150;SDS011;19508;42.578;23.416;2023-09-07T11:22:49;11.00;;;4.18;;
33150;SDS011;19508;42.578;23.416;2023-09-07T11:25:15;10.80;;;3.78;;
33150;SDS011;19508;42.578;23.416;2023-09-07T11:27:40;7.70;;;3.35;;
33150;SDS011;19508;42.578;23.416;2023-09-07T11:30:06;8.68;;;3.83;;
33150;SDS011;19508;42.578;23.416;2023-09-07T11:32:34;10.35;;;4.28;;
33150;SDS011;19508;42.578;23.416;2023-09-07T11:35:00;7.15;;;4.03;;
33150;SDS011;19508;42.578;23.416;2023-09-07T11:37:25;10.43;;;3.80;;
33150;SDS011;19508;42.578;23.416;2023-09-07T11:39:51;6.88;;;4.10;;
33150;SDS011;19508;42.578;23.416;2023-09-07T11:42:17;9.30;;;3.95;;
33150;SDS011;19508;42.578;23.416;2023-09-07T11:44:42;6.68;;;3.85;;
33150;SDS011;19508;42.578;23.416;2023-09-07T11:47:08;11.90;;;4.05;;
33150;SDS011;19508;42.578;23.416;2023-09-07T11:49:34;16.10;;;4.55;;
33150;SDS011;19508;42.578;23.416;2023-09-07T11:51:59;10.57;;;3.90;;
33150;SDS011;19508;42.578;23.416;2023-09-07T11:54:25;10.80;;;3.97;;
33150;SDS011;19508;42.578;23.416;2023-09-07T11:56:50;13.40;;;3.95;;
33150;SDS011;19508;42.578;23.416;2023-09-07T11:59:16;14.18;;;3.88;;
33150;SDS011;19508;42.578;23.416;2023-09-07T12:01:44;7.72;;;3.60;;
33150;SDS011;19508;42.578;23.416;2023-09-07T12:04:09;8.73;;;3.63;;
33150;SDS011;19508;42.578;23.416;2023-09-07T12:06:35;8.43;;;3.78;;
33150;SDS011;19508;42.578;23.416;2023-09-07T12:09:04;7.82;;;3.15;;
33150;SDS011;19508;42.578;23.416;2023-09-07T12:11:34;12.73;;;3.58;;
33150;SDS011;19508;42.578;23.416;2023-09-07T12:14:00;9.70;;;3.35;;
33150;SDS011;19508;42.578;23.416;2023-09-07T12:16:26;8.20;;;3.30;;
33150;SDS011;19508;42.578;23.416;2023-09-07T12:18:52;5.63;;;3.85;;
33150;SDS011;19508;42.578;23.416;2023-09-07T12:21:17;16.42;;;4.13;;
33150;SDS011;19508;42.578;23.416;2023-09-07T12:23:44;9.70;;;3.20;;
33150;SDS011;19508;42.578;23.416;2023-09-07T12:26:09;9.18;;;4.00;;
33150;SDS011;19508;42.578;23.416;2023-09-07T12:28:34;16.08;;;3.83;;
33150;SDS011;19508;42.578;23.416;2023-09-07T12:31:01;8.65;;;3.15;;
33150;SDS011;19508;42.578;23.416;2023-09-07T12:33:26;8.30;;;3.75;;
33150;SDS011;19508;42.578;23.416;2023-09-07T12:35:54;6.90;;;3.63;;
33150;SDS011;19508;42.578;23.416;2023-09-07T12:38:20;11.82;;;3.72;;
33150;SDS011;19508;42.578;23.416;2023-09-07T12:40:49;8.63;;;3.80;;
33150;SDS011;19508;42.578;23.416;2023-09-07T12:43:15;9.60;;;3.53;;
33150;SDS011;19508;42.578;23.416;2023-09-07T12:45:40;11.48;;;3.63;;
33150;SDS011;19508;42.578;23.416;2023-09-07T12:48:06;12.43;;;4.38;;
33150;SDS011;19508;42.578;23.416;2023-09-07T12:50:32;7.60;;;3.97;;
33150;SDS011;19508;42.578;23.416;2023-09-07T12:52:57;8.38;;;3.90;;
33150;SDS011;19508;42.578;23.416;2023-09-07T12:55:23;6.10;;;3.63;;
33150;SDS011;19508;42.578;23.416;2023-09-07T12:57:49;11.77;;;3.75;;
33150;SDS011;19508;42.578;23.416;2023-09-07T13:00:15;8.82;;;3.90;;
33150;SDS011;19508;42.578;23.416;2023-09-07T13:02:41;6.95;;;4.18;;
33150;SDS011;19508;42.578;23.416;2023-09-07T13:05:06;6.82;;;4.03;;
33150;SDS011;19508;42.578;23.416;2023-09-07T13:07:33;8.38;;;4.10;;
33150;SDS011;19508;42.578;23.416;2023-09-07T13:10:00;7.22;;;3.60;;
33150;SDS011;19508;42.578;23.416;2023-09-07T13:12:29;6.93;;;4.30;;
33150;SDS011;19508;42.578;23.416;2023-09-07T13:14:56;8.00;;;4.47;;
33150;SDS011;19508;42.578;23.416;2023-09-07T13:17:21;10.82;;;4.60;;
33150;SDS011;19508;42.578;23.416;2023-09-07T13:19:47;10.82;;;4.60;;
33150;SDS011;19508;42.578;23.416;2023-09-07T13:22:13;10.63;;;4.78;;
33150;SDS011;19508;42.578;23.416;2023-09-07T13:24:39;12.38;;;5.68;;
33150;SDS011;19508;42.578;23.416;2023-09-07T13:27:05;9.77;;;4.25;;
33150;SDS011;19508;42.578;23.416;2023-09-07T13:29:31;7.68;;;3.78;;
33150;SDS011;19508;42.578;23.416;2023-09-07T13:31:59;8.63;;;3.40;;
33150;SDS011;19508;42.578;23.416;2023-09-07T13:34:25;6.47;;;3.45;;
33150;SDS011;19508;42.578;23.416;2023-09-07T13:36:51;5.38;;;3.60;;
33150;SDS011;19508;42.578;23.416;2023-09-07T13:39:16;6.10;;;4.35;;
33150;SDS011;19508;42.578;23.416;2023-09-07T13:41:42;9.68;;;4.13;;
33150;SDS011;19508;42.578;23.416;2023-09-07T13:44:08;9.40;;;4.03;;
33150;SDS011;19508;42.578;23.416;2023-09-07T13:46:33;8.68;;;4.43;;
33150;SDS011;19508;42.578;23.416;2023-09-07T13:48:59;14.95;;;5.80;;
33150;SDS011;19508;42.578;23.416;2023-09-07T13:51:25;9.10;;;5.22;;
33150;SDS011;19508;42.578;23.416;2023-09-07T13:53:51;7.78;;;4.40;;
33150;SDS011;19508;42.578;23.416;2023-09-07T13:56:20;11.77;;;4.32;;
33150;SDS011;19508;42.578;23.416;2023-09-07T13:58:45;14.75;;;3.83;;
33150;SDS011;19508;42.578;23.416;2023-09-07T14:01:11;12.07;;;5.63;;
33150;SDS011;19508;42.578;23.416;2023-09-07T14:03:36;13.38;;;4.10;;
33150;SDS011;19508;42.578;23.416;2023-09-07T14:06:02;5.75;;;3.47;;
33150;SDS011;19508;42.578;23.416;2023-09-07T14:08:27;9.82;;;4.13;;
33150;SDS011;19508;42.578;23.416;2023-09-07T14:10:55;15.98;;;4.10;;
33150;SDS011;19508;42.578;23.416;2023-09-07T14:13:21;21.00;;;5.68;;
33150;SDS011;19508;42.578;23.416;2023-09-07T14:15:46;14.15;;;4.95;;
33150;SDS011;19508;42.578;23.416;2023-09-07T14:18:11;7.95;;;3.85;;